Wilmington, OH

10:55 PM EST on February 12, 2016 (GMT -0500)
2.2 N Wilmington | | Change Station
CLOSE
Current Station
Personal Weather Station
Location: Wilmington, OH
Elevation: 1053 ft
Nearby Weather Stations
Active Advisory: Wind Chill Advisory

Elev 1053 ft 39.47 °N, 83.84 °W | Updated 14 minutes ago

Light Snow
Light Snow
17.9 °F
Feels Like 9 °F
N
7.0
Wind Variable Wind from NNW
Gusts 12.0 mph

Today
High -- | Low -- °F
--% Chance of Precip.
Yesterday
High -- | Low -- °F
Precip. -- in
Pressure 30.19 in
Visibility 6.0 miles
Clouds Overcast 3200 ft
Windchill 9 °F
Dew Point 9 °F
Humidity 69%
Rainfall 0.00 in
Snow Depth Not available.
7:31 AM 6:08 PM
Waxing Crescent, 26% visible
SPECI KILN 130304Z AUTO 31013KT 6SM -SN OVC032 M08/M12 A3019 RMK AO2 P0000 T10781122
Pressure 30.19 in
Visibility 6.0 miles
Clouds Overcast 3200 ft
Windchill 9 °F
Dew Point 9 °F
Humidity 69%
Rainfall 0.00 in
Snow Depth Not available.
7:31 AM 6:08 PM
Waxing Crescent, 26% visible
SPECI KILN 130304Z AUTO 31013KT 6SM -SN OVC032 M08/M12 A3019 RMK AO2 P0000 T10781122

10-Day Weather Forecast

Almanac

Astronomy

Feb. 12, 2016 Rise Set
Actual Time
Civil Twilight
Nautical Twilight
Astronomical Twilight
Moon
Length of Visible Light
Length of Day
Tomorrow will be .
, % of the Moon is Illuminated

Today's Extremes

State Highs State Lows

Community

WunderPhotos

Upload Photos

1,892,492 photos uploaded!

WunderBlog® & News

Nearby

Air Quality

  Air Quality AQ Index Pollutant
Not available.

Snow Depth

Station Depth Elevation

Earthquake Activity

City Distance Mag. Time & Date
Minimum magnitude displayed is 2.5.

Coastal Water Temperatures

Place Temperature

Stations

Nearby Weather Stations

Station Location Temp. Windchill Dew Point Humidity Wind Precip. Elev Updated Type
                   

Watches & Warnings

Wind Chill Advisory
Issued: 9:56 PM EST Feb. 12, 2016 – National Weather Service

... Wind Chill Advisory remains in effect until 10 am EST
Saturday...

* wind chill readings... wind chill readings of 10 to 15 degrees
below zero can be expected early Saturday morning.

* Impacts... the frigid conditions will be dangerous to those
venturing outside. Exposure may cause frostbite.

* Winds... winds will be out of the northwest from 10 to 20
mph... with gusts as high as 25 mph.

* Temperatures... low temperatures will range from 5 to 10 degrees
above zero.

Precautionary/preparedness actions...

A Wind Chill Advisory is issued when a strong wind will combine
with cold temperatures to create dangerously cold conditions for
exposed skin. The wind will make it feel like it is between
10 and 24 degrees below zero for a period of several hours. Those
planning to venture outdoors should use common sense and dress
warmly... making sure that all exposed skin is covered.



Hatzos